sensor_id;sensor_type;location;lat;lon;timestamp;P1;durP1;ratioP1;P2;durP2;ratioP2
10657;SDS011;5377;43.276;26.930;2023-02-28T00:01:31;1.60;;;1.50;;
10657;SDS011;5377;43.276;26.930;2023-02-28T00:03:59;2.00;;;1.90;;
10657;SDS011;5377;43.276;26.930;2023-02-28T00:06:26;1.63;;;1.53;;
10657;SDS011;5377;43.276;26.930;2023-02-28T00:08:53;2.27;;;2.13;;
10657;SDS011;5377;43.276;26.930;2023-02-28T00:11:21;2.03;;;1.93;;
10657;SDS011;5377;43.276;26.930;2023-02-28T00:13:48;2.43;;;2.27;;
10657;SDS011;5377;43.276;26.930;2023-02-28T00:16:15;1.70;;;1.60;;
10657;SDS011;5377;43.276;26.930;2023-02-28T00:18:44;2.00;;;1.90;;
10657;SDS011;5377;43.276;26.930;2023-02-28T00:21:12;2.47;;;2.27;;
10657;SDS011;5377;43.276;26.930;2023-02-28T00:23:40;3.20;;;2.07;;
10657;SDS011;5377;43.276;26.930;2023-02-28T00:26:07;2.67;;;2.53;;
10657;SDS011;5377;43.276;26.930;2023-02-28T00:28:35;2.43;;;2.30;;
10657;SDS011;5377;43.276;26.930;2023-02-28T00:31:02;2.73;;;1.83;;
10657;SDS011;5377;43.276;26.930;2023-02-28T00:33:29;2.50;;;2.30;;
10657;SDS011;5377;43.276;26.930;2023-02-28T00:36:06;2.63;;;2.43;;
10657;SDS011;5377;43.276;26.930;2023-02-28T00:38:34;2.50;;;2.30;;
10657;SDS011;5377;43.276;26.930;2023-02-28T00:41:01;3.03;;;2.80;;
10657;SDS011;5377;43.276;26.930;2023-02-28T00:43:30;2.70;;;2.50;;
10657;SDS011;5377;43.276;26.930;2023-02-28T00:45:59;2.37;;;2.27;;
10657;SDS011;5377;43.276;26.930;2023-02-28T00:48:26;2.50;;;2.30;;
10657;SDS011;5377;43.276;26.930;2023-02-28T00:50:54;2.67;;;2.47;;
10657;SDS011;5377;43.276;26.930;2023-02-28T00:53:21;2.70;;;2.60;;
10657;SDS011;5377;43.276;26.930;2023-02-28T00:55:48;3.00;;;2.80;;
10657;SDS011;5377;43.276;26.930;2023-02-28T00:58:15;3.60;;;3.40;;
10657;SDS011;5377;43.276;26.930;2023-02-28T01:00:42;4.10;;;3.03;;
10657;SDS011;5377;43.276;26.930;2023-02-28T01:03:15;2.90;;;2.70;;
10657;SDS011;5377;43.276;26.930;2023-02-28T01:05:43;2.80;;;2.60;;
10657;SDS011;5377;43.276;26.930;2023-02-28T01:08:10;3.30;;;3.00;;
10657;SDS011;5377;43.276;26.930;2023-02-28T01:10:37;3.03;;;2.83;;
10657;SDS011;5377;43.276;26.930;2023-02-28T01:13:04;2.90;;;2.70;;
10657;SDS011;5377;43.276;26.930;2023-02-28T01:15:31;3.20;;;2.90;;
10657;SDS011;5377;43.276;26.930;2023-02-28T01:17:58;3.43;;;3.13;;
10657;SDS011;5377;43.276;26.930;2023-02-28T01:20:26;3.13;;;2.83;;
10657;SDS011;5377;43.276;26.930;2023-02-28T01:22:53;3.40;;;3.20;;
10657;SDS011;5377;43.276;26.930;2023-02-28T01:25:20;3.93;;;3.23;;
10657;SDS011;5377;43.276;26.930;2023-02-28T01:27:47;2.60;;;2.40;;
10657;SDS011;5377;43.276;26.930;2023-02-28T01:30:14;4.17;;;3.87;;
10657;SDS011;5377;43.276;26.930;2023-02-28T01:32:41;3.13;;;2.93;;
10657;SDS011;5377;43.276;26.930;2023-02-28T01:35:08;2.90;;;2.70;;
10657;SDS011;5377;43.276;26.930;2023-02-28T01:37:36;3.30;;;2.77;;
10657;SDS011;5377;43.276;26.930;2023-02-28T01:40:03;3.70;;;3.50;;
10657;SDS011;5377;43.276;26.930;2023-02-28T01:42:31;3.30;;;3.10;;
10657;SDS011;5377;43.276;26.930;2023-02-28T01:45:03;2.97;;;2.77;;
10657;SDS011;5377;43.276;26.930;2023-02-28T01:47:34;3.67;;;3.37;;
10657;SDS011;5377;43.276;26.930;2023-02-28T01:50:05;3.17;;;2.97;;
10657;SDS011;5377;43.276;26.930;2023-02-28T01:52:37;3.20;;;3.00;;
10657;SDS011;5377;43.276;26.930;2023-02-28T01:55:04;2.80;;;2.60;;
10657;SDS011;5377;43.276;26.930;2023-02-28T01:57:34;2.83;;;2.63;;
10657;SDS011;5377;43.276;26.930;2023-02-28T02:00:05;3.23;;;3.03;;
10657;SDS011;5377;43.276;26.930;2023-02-28T02:02:35;4.57;;;3.47;;
10657;SDS011;5377;43.276;26.930;2023-02-28T02:05:05;3.77;;;3.47;;
10657;SDS011;5377;43.276;26.930;2023-02-28T02:07:34;3.23;;;3.03;;
10657;SDS011;5377;43.276;26.930;2023-02-28T02:10:09;3.07;;;2.97;;
10657;SDS011;5377;43.276;26.930;2023-02-28T02:15:36;3.53;;;3.23;;
10657;SDS011;5377;43.276;26.930;2023-02-28T02:18:08;3.47;;;3.27;;
10657;SDS011;5377;43.276;26.930;2023-02-28T02:20:46;2.73;;;2.53;;
10657;SDS011;5377;43.276;26.930;2023-02-28T02:29:37;2.77;;;2.67;;
10657;SDS011;5377;43.276;26.930;2023-02-28T02:32:26;3.27;;;2.97;;
10657;SDS011;5377;43.276;26.930;2023-02-28T02:35:08;3.27;;;3.00;;
10657;SDS011;5377;43.276;26.930;2023-02-28T02:37:42;2.90;;;2.73;;
10657;SDS011;5377;43.276;26.930;2023-02-28T02:40:14;3.80;;;2.83;;
10657;SDS011;5377;43.276;26.930;2023-02-28T02:42:46;3.37;;;3.07;;
10657;SDS011;5377;43.276;26.930;2023-02-28T02:45:18;3.17;;;2.90;;
10657;SDS011;5377;43.276;26.930;2023-02-28T02:47:50;3.43;;;3.23;;
10657;SDS011;5377;43.276;26.930;2023-02-28T02:50:21;3.13;;;2.93;;
10657;SDS011;5377;43.276;26.930;2023-02-28T02:52:56;3.27;;;2.70;;
10657;SDS011;5377;43.276;26.930;2023-02-28T02:55:26;3.50;;;3.30;;
10657;SDS011;5377;43.276;26.930;2023-02-28T02:57:57;3.20;;;3.00;;
10657;SDS011;5377;43.276;26.930;2023-02-28T03:00:27;3.40;;;3.20;;
10657;SDS011;5377;43.276;26.930;2023-02-28T03:02:59;3.17;;;2.97;;
10657;SDS011;5377;43.276;26.930;2023-02-28T03:05:30;3.63;;;3.33;;
10657;SDS011;5377;43.276;26.930;2023-02-28T03:08:03;4.43;;;3.70;;
10657;SDS011;5377;43.276;26.930;2023-02-28T03:10:32;4.50;;;4.10;;
10657;SDS011;5377;43.276;26.930;2023-02-28T03:16:18;3.70;;;3.50;;
10657;SDS011;5377;43.276;26.930;2023-02-28T03:19:06;2.87;;;2.77;;
10657;SDS011;5377;43.276;26.930;2023-02-28T03:21:46;3.40;;;3.20;;
10657;SDS011;5377;43.276;26.930;2023-02-28T03:24:22;3.40;;;3.20;;
10657;SDS011;5377;43.276;26.930;2023-02-28T03:26:58;3.73;;;3.47;;
10657;SDS011;5377;43.276;26.930;2023-02-28T03:29:33;3.20;;;3.00;;
10657;SDS011;5377;43.276;26.930;2023-02-28T03:32:05;3.60;;;3.40;;
10657;SDS011;5377;43.276;26.930;2023-02-28T03:34:40;3.57;;;3.37;;
10657;SDS011;5377;43.276;26.930;2023-02-28T03:37:16;3.87;;;3.57;;
10657;SDS011;5377;43.276;26.930;2023-02-28T03:39:49;3.37;;;3.23;;
10657;SDS011;5377;43.276;26.930;2023-02-28T03:42:23;4.17;;;3.87;;
10657;SDS011;5377;43.276;26.930;2023-02-28T03:44:54;3.70;;;3.40;;
10657;SDS011;5377;43.276;26.930;2023-02-28T03:47:27;3.70;;;3.50;;
10657;SDS011;5377;43.276;26.930;2023-02-28T03:49:59;3.80;;;3.50;;
10657;SDS011;5377;43.276;26.930;2023-02-28T03:52:34;3.33;;;3.03;;
10657;SDS011;5377;43.276;26.930;2023-02-28T03:55:05;3.43;;;3.23;;
10657;SDS011;5377;43.276;26.930;2023-02-28T03:57:37;5.80;;;3.90;;
10657;SDS011;5377;43.276;26.930;2023-02-28T04:00:11;3.70;;;3.40;;
10657;SDS011;5377;43.276;26.930;2023-02-28T04:02:40;5.27;;;4.87;;
10657;SDS011;5377;43.276;26.930;2023-02-28T04:05:07;4.67;;;4.27;;
10657;SDS011;5377;43.276;26.930;2023-02-28T04:07:36;5.47;;;4.90;;
10657;SDS011;5377;43.276;26.930;2023-02-28T04:10:03;5.07;;;4.77;;
10657;SDS011;5377;43.276;26.930;2023-02-28T04:12:30;5.80;;;5.30;;
10657;SDS011;5377;43.276;26.930;2023-02-28T04:14:57;5.03;;;4.63;;
10657;SDS011;5377;43.276;26.930;2023-02-28T04:17:24;4.23;;;3.93;;
10657;SDS011;5377;43.276;26.930;2023-02-28T04:19:51;6.30;;;5.90;;
10657;SDS011;5377;43.276;26.930;2023-02-28T04:22:19;6.40;;;5.80;;
10657;SDS011;5377;43.276;26.930;2023-02-28T04:24:47;5.53;;;5.03;;
10657;SDS011;5377;43.276;26.930;2023-02-28T04:27:14;6.00;;;5.50;;
10657;SDS011;5377;43.276;26.930;2023-02-28T04:29:40;4.70;;;4.30;;
10657;SDS011;5377;43.276;26.930;2023-02-28T04:32:09;6.03;;;5.57;;
10657;SDS011;5377;43.276;26.930;2023-02-28T04:34:36;5.17;;;4.67;;
10657;SDS011;5377;43.276;26.930;2023-02-28T04:37:03;5.23;;;4.90;;
10657;SDS011;5377;43.276;26.930;2023-02-28T04:39:34;5.03;;;4.63;;
10657;SDS011;5377;43.276;26.930;2023-02-28T04:42:03;5.27;;;4.83;;
10657;SDS011;5377;43.276;26.930;2023-02-28T04:44:30;4.47;;;4.17;;
10657;SDS011;5377;43.276;26.930;2023-02-28T04:46:57;4.43;;;4.13;;
10657;SDS011;5377;43.276;26.930;2023-02-28T04:49:23;6.37;;;5.37;;
10657;SDS011;5377;43.276;26.930;2023-02-28T04:51:50;5.10;;;4.70;;
10657;SDS011;5377;43.276;26.930;2023-02-28T04:54:18;6.00;;;5.60;;
10657;SDS011;5377;43.276;26.930;2023-02-28T04:56:44;5.03;;;4.63;;
10657;SDS011;5377;43.276;26.930;2023-02-28T04:59:14;5.60;;;5.20;;
10657;SDS011;5377;43.276;26.930;2023-02-28T05:01:44;6.47;;;5.97;;
10657;SDS011;5377;43.276;26.930;2023-02-28T05:04:12;6.00;;;5.40;;
10657;SDS011;5377;43.276;26.930;2023-02-28T05:06:39;6.23;;;5.73;;
10657;SDS011;5377;43.276;26.930;2023-02-28T05:09:06;7.30;;;6.60;;
10657;SDS011;5377;43.276;26.930;2023-02-28T05:11:33;7.30;;;6.60;;
10657;SDS011;5377;43.276;26.930;2023-02-28T05:14:01;8.80;;;8.00;;
10657;SDS011;5377;43.276;26.930;2023-02-28T05:16:30;6.93;;;6.33;;
10657;SDS011;5377;43.276;26.930;2023-02-28T05:18:57;6.77;;;6.17;;
10657;SDS011;5377;43.276;26.930;2023-02-28T05:21:25;8.27;;;7.60;;
10657;SDS011;5377;43.276;26.930;2023-02-28T05:23:55;6.43;;;5.83;;
10657;SDS011;5377;43.276;26.930;2023-02-28T05:26:22;7.50;;;6.80;;
10657;SDS011;5377;43.276;26.930;2023-02-28T05:28:50;8.97;;;8.07;;
10657;SDS011;5377;43.276;26.930;2023-02-28T05:31:17;9.90;;;8.90;;
10657;SDS011;5377;43.276;26.930;2023-02-28T05:33:45;6.43;;;5.93;;
10657;SDS011;5377;43.276;26.930;2023-02-28T05:36:12;7.10;;;6.50;;
10657;SDS011;5377;43.276;26.930;2023-02-28T05:38:39;7.50;;;6.87;;
10657;SDS011;5377;43.276;26.930;2023-02-28T05:41:06;5.23;;;4.83;;
10657;SDS011;5377;43.276;26.930;2023-02-28T05:43:34;6.33;;;5.83;;
10657;SDS011;5377;43.276;26.930;2023-02-28T05:46:02;5.77;;;5.23;;
10657;SDS011;5377;43.276;26.930;2023-02-28T05:48:30;4.77;;;4.47;;
10657;SDS011;5377;43.276;26.930;2023-02-28T05:50:59;5.50;;;5.10;;
10657;SDS011;5377;43.276;26.930;2023-02-28T05:53:28;5.93;;;5.43;;
10657;SDS011;5377;43.276;26.930;2023-02-28T05:55:55;5.87;;;5.37;;
10657;SDS011;5377;43.276;26.930;2023-02-28T05:58:22;6.50;;;5.83;;
10657;SDS011;5377;43.276;26.930;2023-02-28T06:00:50;8.43;;;7.63;;
10657;SDS011;5377;43.276;26.930;2023-02-28T06:03:17;12.97;;;10.70;;
10657;SDS011;5377;43.276;26.930;2023-02-28T06:05:44;10.67;;;9.67;;
10657;SDS011;5377;43.276;26.930;2023-02-28T06:08:12;10.13;;;9.23;;
10657;SDS011;5377;43.276;26.930;2023-02-28T06:10:39;7.23;;;6.53;;
10657;SDS011;5377;43.276;26.930;2023-02-28T06:13:05;7.50;;;6.63;;
10657;SDS011;5377;43.276;26.930;2023-02-28T06:15:32;7.47;;;6.88;;
10657;SDS011;5377;43.276;26.930;2023-02-28T06:17:59;6.63;;;6.03;;
10657;SDS011;5377;43.276;26.930;2023-02-28T06:20:27;9.13;;;8.23;;
10657;SDS011;5377;43.276;26.930;2023-02-28T06:22:54;8.80;;;7.90;;
10657;SDS011;5377;43.276;26.930;2023-02-28T06:25:25;7.70;;;7.00;;
10657;SDS011;5377;43.276;26.930;2023-02-28T06:27:52;8.00;;;7.13;;
10657;SDS011;5377;43.276;26.930;2023-02-28T06:30:19;9.13;;;8.13;;
10657;SDS011;5377;43.276;26.930;2023-02-28T06:32:51;7.33;;;6.57;;
10657;SDS011;5377;43.276;26.930;2023-02-28T06:35:18;6.57;;;6.03;;
10657;SDS011;5377;43.276;26.930;2023-02-28T06:37:45;6.80;;;6.10;;
10657;SDS011;5377;43.276;26.930;2023-02-28T06:40:13;6.47;;;5.87;;
10657;SDS011;5377;43.276;26.930;2023-02-28T06:42:41;8.47;;;7.57;;
10657;SDS011;5377;43.276;26.930;2023-02-28T06:45:09;9.00;;;8.10;;
10657;SDS011;5377;43.276;26.930;2023-02-28T06:47:37;6.27;;;5.67;;
10657;SDS011;5377;43.276;26.930;2023-02-28T06:50:05;8.17;;;7.37;;
10657;SDS011;5377;43.276;26.930;2023-02-28T06:52:32;8.77;;;7.87;;
10657;SDS011;5377;43.276;26.930;2023-02-28T06:55:01;8.43;;;7.70;;
10657;SDS011;5377;43.276;26.930;2023-02-28T06:57:28;7.23;;;6.50;;
10657;SDS011;5377;43.276;26.930;2023-02-28T06:59:58;6.87;;;6.27;;
10657;SDS011;5377;43.276;26.930;2023-02-28T07:02:26;7.67;;;6.97;;
10657;SDS011;5377;43.276;26.930;2023-02-28T07:04:53;7.93;;;7.23;;
10657;SDS011;5377;43.276;26.930;2023-02-28T07:07:20;9.60;;;8.60;;
10657;SDS011;5377;43.276;26.930;2023-02-28T07:09:47;10.87;;;9.47;;
10657;SDS011;5377;43.276;26.930;2023-02-28T07:12:14;10.37;;;9.37;;
10657;SDS011;5377;43.276;26.930;2023-02-28T07:14:41;9.57;;;8.67;;
10657;SDS011;5377;43.276;26.930;2023-02-28T07:17:09;9.30;;;8.50;;
10657;SDS011;5377;43.276;26.930;2023-02-28T07:19:37;8.60;;;7.70;;
10657;SDS011;5377;43.276;26.930;2023-02-28T07:22:04;12.90;;;9.83;;
10657;SDS011;5377;43.276;26.930;2023-02-28T07:24:31;10.30;;;9.40;;
10657;SDS011;5377;43.276;26.930;2023-02-28T07:26:58;10.73;;;8.17;;
10657;SDS011;5377;43.276;26.930;2023-02-28T07:29:26;7.63;;;6.93;;
10657;SDS011;5377;43.276;26.930;2023-02-28T07:31:53;10.77;;;7.80;;
10657;SDS011;5377;43.276;26.930;2023-02-28T07:34:21;11.87;;;8.87;;
10657;SDS011;5377;43.276;26.930;2023-02-28T07:36:48;12.93;;;8.17;;
10657;SDS011;5377;43.276;26.930;2023-02-28T07:39:18;10.33;;;8.50;;
10657;SDS011;5377;43.276;26.930;2023-02-28T07:41:45;10.10;;;9.10;;
10657;SDS011;5377;43.276;26.930;2023-02-28T07:44:12;9.50;;;8.57;;
10657;SDS011;5377;43.276;26.930;2023-02-28T07:46:39;10.20;;;8.83;;
10657;SDS011;5377;43.276;26.930;2023-02-28T07:49:06;10.33;;;9.13;;
10657;SDS011;5377;43.276;26.930;2023-02-28T07:51:34;9.37;;;8.40;;
10657;SDS011;5377;43.276;26.930;2023-02-28T07:54:01;9.27;;;8.37;;
10657;SDS011;5377;43.276;26.930;2023-02-28T07:56:28;9.43;;;8.50;;
10657;SDS011;5377;43.276;26.930;2023-02-28T07:58:55;10.23;;;9.00;;
10657;SDS011;5377;43.276;26.930;2023-02-28T08:01:22;11.03;;;9.37;;
10657;SDS011;5377;43.276;26.930;2023-02-28T08:03:48;9.67;;;8.60;;
10657;SDS011;5377;43.276;26.930;2023-02-28T08:06:16;9.87;;;8.90;;
10657;SDS011;5377;43.276;26.930;2023-02-28T08:08:45;9.10;;;8.17;;
10657;SDS011;5377;43.276;26.930;2023-02-28T08:11:12;10.07;;;9.07;;
10657;SDS011;5377;43.276;26.930;2023-02-28T08:13:39;11.20;;;10.20;;
10657;SDS011;5377;43.276;26.930;2023-02-28T08:16:07;9.60;;;8.70;;
10657;SDS011;5377;43.276;26.930;2023-02-28T08:18:34;9.30;;;8.23;;
10657;SDS011;5377;43.276;26.930;2023-02-28T08:21:05;9.63;;;8.40;;
10657;SDS011;5377;43.276;26.930;2023-02-28T08:23:32;9.90;;;8.90;;
10657;SDS011;5377;43.276;26.930;2023-02-28T08:26:02;12.40;;;10.17;;
10657;SDS011;5377;43.276;26.930;2023-02-28T08:28:29;9.03;;;7.97;;
10657;SDS011;5377;43.276;26.930;2023-02-28T08:30:56;12.63;;;9.40;;
10657;SDS011;5377;43.276;26.930;2023-02-28T08:33:23;10.37;;;9.07;;
10657;SDS011;5377;43.276;26.930;2023-02-28T08:35:52;11.33;;;9.43;;
10657;SDS011;5377;43.276;26.930;2023-02-28T08:38:20;12.20;;;9.30;;
10657;SDS011;5377;43.276;26.930;2023-02-28T08:40:47;12.80;;;10.30;;
10657;SDS011;5377;43.276;26.930;2023-02-28T08:43:15;11.00;;;9.40;;
10657;SDS011;5377;43.276;26.930;2023-02-28T08:45:42;12.07;;;9.20;;
10657;SDS011;5377;43.276;26.930;2023-02-28T08:48:09;13.00;;;10.20;;
10657;SDS011;5377;43.276;26.930;2023-02-28T08:50:35;10.40;;;9.37;;
10657;SDS011;5377;43.276;26.930;2023-02-28T08:53:02;20.07;;;9.13;;
10657;SDS011;5377;43.276;26.930;2023-02-28T08:55:29;9.47;;;8.53;;
10657;SDS011;5377;43.276;26.930;2023-02-28T08:57:56;8.60;;;7.70;;
10657;SDS011;5377;43.276;26.930;2023-02-28T09:00:24;10.00;;;8.90;;
10657;SDS011;5377;43.276;26.930;2023-02-28T09:02:51;15.90;;;10.47;;
10657;SDS011;5377;43.276;26.930;2023-02-28T09:05:19;14.87;;;11.10;;
10657;SDS011;5377;43.276;26.930;2023-02-28T09:07:46;13.30;;;11.37;;
10657;SDS011;5377;43.276;26.930;2023-02-28T09:10:13;18.87;;;16.07;;
10657;SDS011;5377;43.276;26.930;2023-02-28T09:12:40;14.57;;;12.47;;
10657;SDS011;5377;43.276;26.930;2023-02-28T09:15:07;14.20;;;11.87;;
10657;SDS011;5377;43.276;26.930;2023-02-28T09:17:36;18.63;;;16.10;;
10657;SDS011;5377;43.276;26.930;2023-02-28T09:20:03;23.53;;;19.90;;
10657;SDS011;5377;43.276;26.930;2023-02-28T09:22:30;23.90;;;17.83;;
10657;SDS011;5377;43.276;26.930;2023-02-28T09:24:57;15.57;;;12.83;;
10657;SDS011;5377;43.276;26.930;2023-02-28T09:27:24;14.50;;;13.00;;
10657;SDS011;5377;43.276;26.930;2023-02-28T09:29:51;14.57;;;12.93;;
10657;SDS011;5377;43.276;26.930;2023-02-28T09:32:18;14.00;;;12.47;;
10657;SDS011;5377;43.276;26.930;2023-02-28T09:34:46;16.50;;;13.30;;
10657;SDS011;5377;43.276;26.930;2023-02-28T09:37:13;19.30;;;13.90;;
10657;SDS011;5377;43.276;26.930;2023-02-28T09:39:40;16.20;;;14.50;;
10657;SDS011;5377;43.276;26.930;2023-02-28T09:42:11;20.80;;;15.93;;
10657;SDS011;5377;43.276;26.930;2023-02-28T09:44:47;19.67;;;14.17;;
10657;SDS011;5377;43.276;26.930;2023-02-28T09:47:17;18.17;;;14.37;;
10657;SDS011;5377;43.276;26.930;2023-02-28T09:49:54;20.87;;;14.27;;
10657;SDS011;5377;43.276;26.930;2023-02-28T09:52:25;17.33;;;14.50;;
10657;SDS011;5377;43.276;26.930;2023-02-28T09:54:58;20.97;;;16.17;;
10657;SDS011;5377;43.276;26.930;2023-02-28T09:57:30;20.53;;;14.67;;
10657;SDS011;5377;43.276;26.930;2023-02-28T10:00:03;19.37;;;14.80;;
10657;SDS011;5377;43.276;26.930;2023-02-28T10:02:48;18.50;;;15.57;;
10657;SDS011;5377;43.276;26.930;2023-02-28T10:05:25;20.77;;;16.37;;
10657;SDS011;5377;43.276;26.930;2023-02-28T10:08:00;26.20;;;18.30;;
10657;SDS011;5377;43.276;26.930;2023-02-28T10:10:34;22.37;;;17.60;;
10657;SDS011;5377;43.276;26.930;2023-02-28T10:13:06;23.63;;;18.73;;
10657;SDS011;5377;43.276;26.930;2023-02-28T10:15:39;29.50;;;18.53;;
10657;SDS011;5377;43.276;26.930;2023-02-28T10:18:10;26.50;;;18.47;;
10657;SDS011;5377;43.276;26.930;2023-02-28T10:20:44;27.23;;;18.50;;
10657;SDS011;5377;43.276;26.930;2023-02-28T10:23:12;25.77;;;17.43;;
10657;SDS011;5377;43.276;26.930;2023-02-28T10:25:45;27.63;;;18.70;;
10657;SDS011;5377;43.276;26.930;2023-02-28T10:28:19;26.50;;;18.77;;
10657;SDS011;5377;43.276;26.930;2023-02-28T10:30:46;27.83;;;20.13;;
10657;SDS011;5377;43.276;26.930;2023-02-28T10:33:17;30.87;;;20.57;;
10657;SDS011;5377;43.276;26.930;2023-02-28T10:35:49;31.77;;;21.83;;
10657;SDS011;5377;43.276;26.930;2023-02-28T10:38:17;31.57;;;28.03;;
10657;SDS011;5377;43.276;26.930;2023-02-28T10:40:45;30.47;;;22.07;;
10657;SDS011;5377;43.276;26.930;2023-02-28T10:43:22;32.63;;;19.63;;
10657;SDS011;5377;43.276;26.930;2023-02-28T10:45:58;26.73;;;19.10;;
10657;SDS011;5377;43.276;26.930;2023-02-28T10:48:34;27.30;;;18.90;;
10657;SDS011;5377;43.276;26.930;2023-02-28T10:51:05;22.07;;;17.10;;
10657;SDS011;5377;43.276;26.930;2023-02-28T10:53:36;22.93;;;17.17;;
10657;SDS011;5377;43.276;26.930;2023-02-28T10:56:12;24.57;;;18.37;;
10657;SDS011;5377;43.276;26.930;2023-02-28T10:58:46;23.17;;;17.63;;
10657;SDS011;5377;43.276;26.930;2023-02-28T11:01:16;25.90;;;17.23;;
10657;SDS011;5377;43.276;26.930;2023-02-28T11:03:44;26.90;;;17.57;;
10657;SDS011;5377;43.276;26.930;2023-02-28T11:06:16;34.10;;;22.23;;
10657;SDS011;5377;43.276;26.930;2023-02-28T11:08:49;25.23;;;19.47;;
10657;SDS011;5377;43.276;26.930;2023-02-28T11:11:18;27.20;;;21.00;;
10657;SDS011;5377;43.276;26.930;2023-02-28T11:13:46;28.17;;;19.57;;
10657;SDS011;5377;43.276;26.930;2023-02-28T11:16:16;25.33;;;18.50;;
10657;SDS011;5377;43.276;26.930;2023-02-28T11:18:44;26.40;;;19.23;;
10657;SDS011;5377;43.276;26.930;2023-02-28T11:21:17;27.40;;;20.00;;
10657;SDS011;5377;43.276;26.930;2023-02-28T11:23:49;25.50;;;19.20;;
10657;SDS011;5377;43.276;26.930;2023-02-28T11:32:04;24.00;;;18.47;;
10657;SDS011;5377;43.276;26.930;2023-02-28T11:34:38;22.90;;;18.17;;
10657;SDS011;5377;43.276;26.930;2023-02-28T11:37:09;20.73;;;16.93;;
10657;SDS011;5377;43.276;26.930;2023-02-28T11:39:38;20.93;;;15.63;;
10657;SDS011;5377;43.276;26.930;2023-02-28T11:42:16;24.17;;;18.40;;
10657;SDS011;5377;43.276;26.930;2023-02-28T11:45:11;25.67;;;17.00;;
10657;SDS011;5377;43.276;26.930;2023-02-28T11:47:46;22.43;;;15.63;;
10657;SDS011;5377;43.276;26.930;2023-02-28T11:50:26;22.13;;;16.57;;
10657;SDS011;5377;43.276;26.930;2023-02-28T11:53:13;21.33;;;15.97;;
10657;SDS011;5377;43.276;26.930;2023-02-28T11:55:49;22.77;;;17.03;;
10657;SDS011;5377;43.276;26.930;2023-02-28T11:58:24;26.53;;;19.73;;
10657;SDS011;5377;43.276;26.930;2023-02-28T12:01:01;28.80;;;20.00;;
10657;SDS011;5377;43.276;26.930;2023-02-28T12:03:38;26.67;;;18.73;;
10657;SDS011;5377;43.276;26.930;2023-02-28T12:06:14;24.67;;;18.87;;
10657;SDS011;5377;43.276;26.930;2023-02-28T12:08:51;24.97;;;16.77;;
10657;SDS011;5377;43.276;26.930;2023-02-28T12:11:29;19.73;;;15.70;;
10657;SDS011;5377;43.276;26.930;2023-02-28T12:14:09;24.67;;;15.67;;
10657;SDS011;5377;43.276;26.930;2023-02-28T12:16:56;20.37;;;15.13;;
10657;SDS011;5377;43.276;26.930;2023-02-28T12:19:33;20.40;;;15.20;;
10657;SDS011;5377;43.276;26.930;2023-02-28T12:22:15;44.83;;;28.37;;
10657;SDS011;5377;43.276;26.930;2023-02-28T12:25:17;20.20;;;16.47;;
10657;SDS011;5377;43.276;26.930;2023-02-28T12:27:50;21.80;;;14.43;;
10657;SDS011;5377;43.276;26.930;2023-02-28T12:30:19;20.63;;;15.90;;
10657;SDS011;5377;43.276;26.930;2023-02-28T12:32:51;24.20;;;17.33;;
10657;SDS011;5377;43.276;26.930;2023-02-28T12:35:23;24.47;;;18.83;;
10657;SDS011;5377;43.276;26.930;2023-02-28T12:37:55;21.23;;;17.13;;
10657;SDS011;5377;43.276;26.930;2023-02-28T12:40:27;22.80;;;17.97;;
10657;SDS011;5377;43.276;26.930;2023-02-28T12:43:02;20.27;;;15.80;;
10657;SDS011;5377;43.276;26.930;2023-02-28T12:45:38;26.97;;;19.77;;
10657;SDS011;5377;43.276;26.930;2023-02-28T12:48:08;19.03;;;16.07;;
10657;SDS011;5377;43.276;26.930;2023-02-28T12:50:39;22.10;;;16.13;;
10657;SDS011;5377;43.276;26.930;2023-02-28T12:53:08;22.13;;;16.50;;
10657;SDS011;5377;43.276;26.930;2023-02-28T12:55:43;18.90;;;15.70;;
10657;SDS011;5377;43.276;26.930;2023-02-28T12:58:16;18.87;;;14.37;;
10657;SDS011;5377;43.276;26.930;2023-02-28T13:01:04;22.17;;;17.37;;
10657;SDS011;5377;43.276;26.930;2023-02-28T13:04:03;20.47;;;15.37;;
10657;SDS011;5377;43.276;26.930;2023-02-28T13:06:59;33.53;;;22.10;;
10657;SDS011;5377;43.276;26.930;2023-02-28T13:09:36;21.97;;;16.80;;
10657;SDS011;5377;43.276;26.930;2023-02-28T13:12:13;34.57;;;21.63;;
10657;SDS011;5377;43.276;26.930;2023-02-28T13:14:42;43.40;;;25.77;;
10657;SDS011;5377;43.276;26.930;2023-02-28T13:17:12;26.27;;;18.70;;
10657;SDS011;5377;43.276;26.930;2023-02-28T13:19:44;28.33;;;19.77;;
10657;SDS011;5377;43.276;26.930;2023-02-28T13:22:18;25.80;;;18.60;;
10657;SDS011;5377;43.276;26.930;2023-02-28T13:24:47;25.43;;;18.93;;
10657;SDS011;5377;43.276;26.930;2023-02-28T13:30:02;20.07;;;15.97;;
10657;SDS011;5377;43.276;26.930;2023-02-28T13:33:28;19.93;;;14.77;;
10657;SDS011;5377;43.276;26.930;2023-02-28T13:36:09;23.57;;;17.47;;
10657;SDS011;5377;43.276;26.930;2023-02-28T13:38:49;21.80;;;15.47;;
10657;SDS011;5377;43.276;26.930;2023-02-28T13:44:08;32.47;;;19.70;;
10657;SDS011;5377;43.276;26.930;2023-02-28T13:46:38;25.97;;;16.97;;
10657;SDS011;5377;43.276;26.930;2023-02-28T13:49:43;27.30;;;16.97;;
10657;SDS011;5377;43.276;26.930;2023-02-28T13:52:12;28.23;;;17.90;;
10657;SDS011;5377;43.276;26.930;2023-02-28T13:54:49;21.63;;;16.73;;
10657;SDS011;5377;43.276;26.930;2023-02-28T13:57:57;18.23;;;14.90;;
10657;SDS011;5377;43.276;26.930;2023-02-28T14:00:42;18.17;;;13.40;;
10657;SDS011;5377;43.276;26.930;2023-02-28T14:03:26;18.80;;;14.00;;
10657;SDS011;5377;43.276;26.930;2023-02-28T14:06:10;19.10;;;15.07;;
10657;SDS011;5377;43.276;26.930;2023-02-28T14:08:45;16.10;;;13.47;;
10657;SDS011;5377;43.276;26.930;2023-02-28T14:11:29;17.27;;;13.37;;
10657;SDS011;5377;43.276;26.930;2023-02-28T14:13:58;20.23;;;15.27;;
10657;SDS011;5377;43.276;26.930;2023-02-28T14:16:26;17.23;;;13.70;;
10657;SDS011;5377;43.276;26.930;2023-02-28T14:19:01;15.67;;;12.93;;
10657;SDS011;5377;43.276;26.930;2023-02-28T14:21:38;19.27;;;13.60;;
10657;SDS011;5377;43.276;26.930;2023-02-28T14:24:19;15.43;;;12.20;;
10657;SDS011;5377;43.276;26.930;2023-02-28T14:27:06;17.30;;;12.43;;
10657;SDS011;5377;43.276;26.930;2023-02-28T14:29:46;15.17;;;12.07;;
10657;SDS011;5377;43.276;26.930;2023-02-28T14:32:31;14.53;;;12.93;;
10657;SDS011;5377;43.276;26.930;2023-02-28T14:35:03;14.03;;;12.13;;
10657;SDS011;5377;43.276;26.930;2023-02-28T14:37:41;13.77;;;12.13;;
10657;SDS011;5377;43.276;26.930;2023-02-28T14:40:12;21.13;;;17.03;;
10657;SDS011;5377;43.276;26.930;2023-02-28T14:42:46;22.73;;;18.20;;
10657;SDS011;5377;43.276;26.930;2023-02-28T14:45:18;53.57;;;35.83;;
10657;SDS011;5377;43.276;26.930;2023-02-28T14:47:46;46.50;;;33.40;;
10657;SDS011;5377;43.276;26.930;2023-02-28T14:50:17;42.00;;;27.50;;
10657;SDS011;5377;43.276;26.930;2023-02-28T14:52:47;52.67;;;34.40;;
10657;SDS011;5377;43.276;26.930;2023-02-28T14:55:18;31.63;;;25.27;;
10657;SDS011;5377;43.276;26.930;2023-02-28T14:57:53;46.43;;;33.30;;
10657;SDS011;5377;43.276;26.930;2023-02-28T15:00:23;28.20;;;20.63;;
10657;SDS011;5377;43.276;26.930;2023-02-28T15:02:51;26.13;;;20.30;;
10657;SDS011;5377;43.276;26.930;2023-02-28T15:05:26;17.00;;;15.03;;
10657;SDS011;5377;43.276;26.930;2023-02-28T15:08:09;15.63;;;13.83;;
10657;SDS011;5377;43.276;26.930;2023-02-28T15:10:39;17.33;;;15.37;;
10657;SDS011;5377;43.276;26.930;2023-02-28T15:13:10;18.17;;;16.27;;
10657;SDS011;5377;43.276;26.930;2023-02-28T15:15:43;18.40;;;14.37;;
10657;SDS011;5377;43.276;26.930;2023-02-28T15:18:21;19.20;;;16.60;;
10657;SDS011;5377;43.276;26.930;2023-02-28T15:20:52;21.20;;;16.10;;
10657;SDS011;5377;43.276;26.930;2023-02-28T15:23:23;17.90;;;14.67;;